sensor_id;sensor_type;location;lat;lon;timestamp;temperature;humidity
33815;DHT22;20121;51.910;8.406;2023-07-02T08:52:59;21.00;94.70
33815;DHT22;20121;51.910;8.406;2023-07-02T08:55:25;21.60;99.90
33815;DHT22;20121;51.910;8.406;2023-07-02T08:57:55;21.20;91.90
33815;DHT22;20121;51.910;8.406;2023-07-02T09:00:23;20.50;98.10
33815;DHT22;20121;51.910;8.406;2023-07-02T09:05:14;20.30;99.90
33815;DHT22;20121;51.910;8.406;2023-07-02T09:07:47;20.20;99.30
33815;DHT22;20121;51.910;8.406;2023-07-02T09:10:29;20.20;91.90
33815;DHT22;20121;51.910;8.406;2023-07-02T09:13:07;20.40;91.60
33815;DHT22;20121;51.910;8.406;2023-07-02T09:15:38;20.70;99.90
33815;DHT22;20121;51.910;8.406;2023-07-02T09:18:21;21.10;94.80
33815;DHT22;20121;51.910;8.406;2023-07-02T09:20:59;20.70;97.60
33815;DHT22;20121;51.910;8.406;2023-07-02T09:23:34;20.80;97.70
33815;DHT22;20121;51.910;8.406;2023-07-02T09:26:01;20.80;97.10
33815;DHT22;20121;51.910;8.406;2023-07-02T09:28:26;20.70;97.10
33815;DHT22;20121;51.910;8.406;2023-07-02T09:30:54;20.50;89.20
33815;DHT22;20121;51.910;8.406;2023-07-02T09:33:20;20.40;89.70
33815;DHT22;20121;51.910;8.406;2023-07-02T09:38:12;20.10;89.70
33815;DHT22;20121;51.910;8.406;2023-07-02T09:40:47;20.50;93.50
33815;DHT22;20121;51.910;8.406;2023-07-02T09:43:15;20.10;90.70
33815;DHT22;20121;51.910;8.406;2023-07-02T09:45:43;20.40;93.30
33815;DHT22;20121;51.910;8.406;2023-07-02T09:48:13;20.60;99.90
33815;DHT22;20121;51.910;8.406;2023-07-02T09:50:44;20.60;88.20
33815;DHT22;20121;51.910;8.406;2023-07-02T09:53:11;21.20;96.80
33815;DHT22;20121;51.910;8.406;2023-07-02T09:55:38;20.80;86.30
33815;DHT22;20121;51.910;8.406;2023-07-02T09:58:04;20.90;95.40
33815;DHT22;20121;51.910;8.406;2023-07-02T10:00:30;20.20;96.20
33815;DHT22;20121;51.910;8.406;2023-07-02T10:02:56;21.10;96.40
33815;DHT22;20121;51.910;8.406;2023-07-02T10:05:34;20.60;96.20
33815;DHT22;20121;51.910;8.406;2023-07-02T10:08:13;21.00;91.40
33815;DHT22;20121;51.910;8.406;2023-07-02T10:10:48;21.00;98.70
33815;DHT22;20121;51.910;8.406;2023-07-02T10:18:07;20.70;95.30
33815;DHT22;20121;51.910;8.406;2023-07-02T10:20:37;20.70;95.00
33815;DHT22;20121;51.910;8.406;2023-07-02T10:23:04;20.60;95.40
33815;DHT22;20121;51.910;8.406;2023-07-02T10:25:32;20.60;93.80
33815;DHT22;20121;51.910;8.406;2023-07-02T10:28:00;20.40;96.00
33815;DHT22;20121;51.910;8.406;2023-07-02T10:30:37;20.50;92.60
33815;DHT22;20121;51.910;8.406;2023-07-02T10:33:12;21.10;92.60
33815;DHT22;20121;51.910;8.406;2023-07-02T10:35:45;20.70;85.40
33815;DHT22;20121;51.910;8.406;2023-07-02T10:38:20;20.80;85.30
33815;DHT22;20121;51.910;8.406;2023-07-02T10:40:46;21.30;92.10
33815;DHT22;20121;51.910;8.406;2023-07-02T10:45:38;20.70;93.70
33815;DHT22;20121;51.910;8.406;2023-07-02T10:48:09;20.90;84.90
33815;DHT22;20121;51.910;8.406;2023-07-02T10:50:35;20.60;94.20
33815;DHT22;20121;51.910;8.406;2023-07-02T10:55:28;21.50;94.70
33815;DHT22;20121;51.910;8.406;2023-07-02T10:58:05;21.10;95.00
33815;DHT22;20121;51.910;8.406;2023-07-02T11:00:31;20.90;85.60
33815;DHT22;20121;51.910;8.406;2023-07-02T11:02:58;21.00;86.50
33815;DHT22;20121;51.910;8.406;2023-07-02T11:05:24;20.70;99.90
33815;DHT22;20121;51.910;8.406;2023-07-02T11:10:23;21.40;96.00
33815;DHT22;20121;51.910;8.406;2023-07-02T11:12:49;21.20;96.30
33815;DHT22;20121;51.910;8.406;2023-07-02T11:15:16;21.40;96.20
33815;DHT22;20121;51.910;8.406;2023-07-02T11:17:43;21.40;96.60
33815;DHT22;20121;51.910;8.406;2023-07-02T11:20:09;21.80;99.90
33815;DHT22;20121;51.910;8.406;2023-07-02T11:22:36;21.30;87.70
33815;DHT22;20121;51.910;8.406;2023-07-02T11:25:31;21.20;89.00
33815;DHT22;20121;51.910;8.406;2023-07-02T11:28:04;21.00;93.80
33815;DHT22;20121;51.910;8.406;2023-07-02T11:32:56;21.70;94.60
33815;DHT22;20121;51.910;8.406;2023-07-02T11:35:22;21.70;95.60
33815;DHT22;20121;51.910;8.406;2023-07-02T11:37:48;21.30;95.80
33815;DHT22;20121;51.910;8.406;2023-07-02T11:40:17;21.40;89.90
33815;DHT22;20121;51.910;8.406;2023-07-02T11:47:35;21.10;89.30
33815;DHT22;20121;51.910;8.406;2023-07-02T11:57:20;21.00;87.20
33815;DHT22;20121;51.910;8.406;2023-07-02T12:02:14;20.70;99.50
33815;DHT22;20121;51.910;8.406;2023-07-02T12:04:40;20.40;99.20
33815;DHT22;20121;51.910;8.406;2023-07-02T12:19:16;21.00;92.30
33815;DHT22;20121;51.910;8.406;2023-07-02T12:21:41;20.60;98.40
33815;DHT22;20121;51.910;8.406;2023-07-02T12:24:07;20.60;94.20
33815;DHT22;20121;51.910;8.406;2023-07-02T12:26:35;21.00;83.90
33815;DHT22;20121;51.910;8.406;2023-07-02T12:33:53;21.60;91.50
33815;DHT22;20121;51.910;8.406;2023-07-02T12:36:19;21.40;93.30
33815;DHT22;20121;51.910;8.406;2023-07-02T12:41:10;21.50;92.70
33815;DHT22;20121;51.910;8.406;2023-07-02T12:43:36;21.40;91.50
33815;DHT22;20121;51.910;8.406;2023-07-02T12:50:57;21.80;83.10
33815;DHT22;20121;51.910;8.406;2023-07-02T12:53:24;21.50;83.80
33815;DHT22;20121;51.910;8.406;2023-07-02T12:55:50;21.50;94.20
33815;DHT22;20121;51.910;8.406;2023-07-02T13:03:11;21.60;96.20
33815;DHT22;20121;51.910;8.406;2023-07-02T13:05:37;21.80;96.70
33815;DHT22;20121;51.910;8.406;2023-07-02T13:08:02;22.00;91.50
33815;DHT22;20121;51.910;8.406;2023-07-02T13:10:29;21.70;81.90
33815;DHT22;20121;51.910;8.406;2023-07-02T13:12:55;21.70;91.80
33815;DHT22;20121;51.910;8.406;2023-07-02T13:20:14;21.80;97.00
33815;DHT22;20121;51.910;8.406;2023-07-02T13:22:40;21.50;92.10
33815;DHT22;20121;51.910;8.406;2023-07-02T13:25:06;22.20;91.80
33815;DHT22;20121;51.910;8.406;2023-07-02T13:27:32;22.40;92.80
33815;DHT22;20121;51.910;8.406;2023-07-02T13:29:58;22.70;92.20
33815;DHT22;20121;51.910;8.406;2023-07-02T13:32:23;21.40;96.00
33815;DHT22;20121;51.910;8.406;2023-07-02T13:34:49;22.00;83.60
33815;DHT22;20121;51.910;8.406;2023-07-02T13:39:47;22.00;80.10
33815;DHT22;20121;51.910;8.406;2023-07-02T13:42:14;22.10;79.30
33815;DHT22;20121;51.910;8.406;2023-07-02T13:49:32;22.00;80.10
33815;DHT22;20121;51.910;8.406;2023-07-02T13:54:24;21.90;91.90
33815;DHT22;20121;51.910;8.406;2023-07-02T13:56:50;21.60;91.50
33815;DHT22;20121;51.910;8.406;2023-07-02T14:01:43;21.90;95.90
33815;DHT22;20121;51.910;8.406;2023-07-02T14:06:34;21.30;91.70
33815;DHT22;20121;51.910;8.406;2023-07-02T14:09:00;21.70;92.30
33815;DHT22;20121;51.910;8.406;2023-07-02T14:11:26;21.50;94.80
33815;DHT22;20121;51.910;8.406;2023-07-02T14:13:53;22.30;85.00
33815;DHT22;20121;51.910;8.406;2023-07-02T14:16:19;22.60;93.70
33815;DHT22;20121;51.910;8.406;2023-07-02T14:21:11;21.60;93.20
33815;DHT22;20121;51.910;8.406;2023-07-02T14:23:37;21.20;92.20
33815;DHT22;20121;51.910;8.406;2023-07-02T14:30:59;22.10;83.90
33815;DHT22;20121;51.910;8.406;2023-07-02T14:33:27;21.80;93.00
33815;DHT22;20121;51.910;8.406;2023-07-02T14:35:52;22.60;93.80
33815;DHT22;20121;51.910;8.406;2023-07-02T14:38:18;22.40;93.00
33815;DHT22;20121;51.910;8.406;2023-07-02T14:40:44;22.10;95.10
33815;DHT22;20121;51.910;8.406;2023-07-02T14:45:43;22.00;86.70
33815;DHT22;20121;51.910;8.406;2023-07-02T14:48:08;21.60;92.70
33815;DHT22;20121;51.910;8.406;2023-07-02T14:53:00;21.60;90.00
33815;DHT22;20121;51.910;8.406;2023-07-02T14:55:26;21.50;98.70
33815;DHT22;20121;51.910;8.406;2023-07-02T15:00:18;21.40;92.30
33815;DHT22;20121;51.910;8.406;2023-07-02T15:02:44;22.10;93.50
33815;DHT22;20121;51.910;8.406;2023-07-02T15:07:36;22.30;95.60
33815;DHT22;20121;51.910;8.406;2023-07-02T15:10:02;21.40;92.00
33815;DHT22;20121;51.910;8.406;2023-07-02T15:12:27;21.80;94.40
33815;DHT22;20121;51.910;8.406;2023-07-02T15:17:19;22.30;98.90
33815;DHT22;20121;51.910;8.406;2023-07-02T15:22:10;21.80;97.00
33815;DHT22;20121;51.910;8.406;2023-07-02T15:24:36;21.80;91.20
33815;DHT22;20121;51.910;8.406;2023-07-02T15:27:01;22.00;91.80
33815;DHT22;20121;51.910;8.406;2023-07-02T15:31:53;22.40;92.90
33815;DHT22;20121;51.910;8.406;2023-07-02T15:34:18;22.20;93.60
33815;DHT22;20121;51.910;8.406;2023-07-02T15:36:45;21.70;92.40
33815;DHT22;20121;51.910;8.406;2023-07-02T15:41:36;21.20;92.40
33815;DHT22;20121;51.910;8.406;2023-07-02T15:44:04;21.80;84.10
33815;DHT22;20121;51.910;8.406;2023-07-02T15:46:31;22.30;98.20
33815;DHT22;20121;51.910;8.406;2023-07-02T15:48:59;22.30;94.40
33815;DHT22;20121;51.910;8.406;2023-07-02T15:51:28;21.70;84.70
33815;DHT22;20121;51.910;8.406;2023-07-02T15:53:53;21.30;95.80
33815;DHT22;20121;51.910;8.406;2023-07-02T15:56:20;21.90;88.30
33815;DHT22;20121;51.910;8.406;2023-07-02T16:13:22;21.70;99.90
33815;DHT22;20121;51.910;8.406;2023-07-02T16:15:48;21.00;94.30
33815;DHT22;20121;51.910;8.406;2023-07-02T16:18:13;21.00;92.40
33815;DHT22;20121;51.910;8.406;2023-07-02T16:20:40;21.00;99.20
33815;DHT22;20121;51.910;8.406;2023-07-02T16:23:07;21.70;97.70
33815;DHT22;20121;51.910;8.406;2023-07-02T16:30:27;21.20;94.90
33815;DHT22;20121;51.910;8.406;2023-07-02T16:32:52;20.90;93.90
33815;DHT22;20121;51.910;8.406;2023-07-02T16:35:19;21.00;92.40
33815;DHT22;20121;51.910;8.406;2023-07-02T16:37:44;20.80;95.50
33815;DHT22;20121;51.910;8.406;2023-07-02T16:40:10;20.80;98.10
33815;DHT22;20121;51.910;8.406;2023-07-02T16:42:36;20.90;94.90
33815;DHT22;20121;51.910;8.406;2023-07-02T16:47:32;20.50;99.30
33815;DHT22;20121;51.910;8.406;2023-07-02T16:50:02;21.30;92.30
33815;DHT22;20121;51.910;8.406;2023-07-02T16:52:28;20.40;95.10
33815;DHT22;20121;51.910;8.406;2023-07-02T16:54:54;20.30;98.00
33815;DHT22;20121;51.910;8.406;2023-07-02T16:57:19;20.40;93.30
33815;DHT22;20121;51.910;8.406;2023-07-02T16:59:45;20.60;98.70
33815;DHT22;20121;51.910;8.406;2023-07-02T17:04:37;20.60;93.70
33815;DHT22;20121;51.910;8.406;2023-07-02T17:07:02;20.20;93.40
33815;DHT22;20121;51.910;8.406;2023-07-02T17:09:29;21.10;94.10
33815;DHT22;20121;51.910;8.406;2023-07-02T17:12:01;20.70;87.10
33815;DHT22;20121;51.910;8.406;2023-07-02T17:14:28;20.70;87.40
33815;DHT22;20121;51.910;8.406;2023-07-02T17:16:58;21.30;97.40
33815;DHT22;20121;51.910;8.406;2023-07-02T17:19:26;20.70;92.90
33815;DHT22;20121;51.910;8.406;2023-07-02T17:21:53;21.20;96.00
33815;DHT22;20121;51.910;8.406;2023-07-02T17:24:21;20.40;94.10
33815;DHT22;20121;51.910;8.406;2023-07-02T17:26:48;20.80;87.60
33815;DHT22;20121;51.910;8.406;2023-07-02T17:29:15;20.80;87.90
33815;DHT22;20121;51.910;8.406;2023-07-02T17:31:47;20.70;93.10
33815;DHT22;20121;51.910;8.406;2023-07-02T17:34:14;20.30;99.10
33815;DHT22;20121;51.910;8.406;2023-07-02T17:39:07;20.70;94.80
33815;DHT22;20121;51.910;8.406;2023-07-02T17:41:33;21.10;94.90
33815;DHT22;20121;51.910;8.406;2023-07-02T17:43:58;20.50;94.70
33815;DHT22;20121;51.910;8.406;2023-07-02T17:48:50;20.20;94.60
33815;DHT22;20121;51.910;8.406;2023-07-02T17:51:15;20.30;94.20
33815;DHT22;20121;51.910;8.406;2023-07-02T17:53:41;20.80;94.40
33815;DHT22;20121;51.910;8.406;2023-07-02T17:56:07;19.80;98.00
33815;DHT22;20121;51.910;8.406;2023-07-02T17:58:32;20.00;94.80
33815;DHT22;20121;51.910;8.406;2023-07-02T18:00:58;19.90;94.50
33815;DHT22;20121;51.910;8.406;2023-07-02T18:03:23;20.50;94.30
33815;DHT22;20121;51.910;8.406;2023-07-02T18:10:41;19.70;94.10
33815;DHT22;20121;51.910;8.406;2023-07-02T18:13:10;19.50;99.30
33815;DHT22;20121;51.910;8.406;2023-07-02T18:15:36;20.60;99.90
33815;DHT22;20121;51.910;8.406;2023-07-02T18:18:02;19.60;92.50
33815;DHT22;20121;51.910;8.406;2023-07-02T18:25:20;20.00;94.60
33815;DHT22;20121;51.910;8.406;2023-07-02T18:28:04;19.70;94.60
33815;DHT22;20121;51.910;8.406;2023-07-02T18:30:30;20.40;98.90
33815;DHT22;20121;51.910;8.406;2023-07-02T18:32:56;19.80;94.50
33815;DHT22;20121;51.910;8.406;2023-07-02T18:35:21;20.00;94.70
33815;DHT22;20121;51.910;8.406;2023-07-02T18:37:47;20.30;96.90
33815;DHT22;20121;51.910;8.406;2023-07-02T18:42:39;19.70;99.20
33815;DHT22;20121;51.910;8.406;2023-07-02T18:45:06;19.60;95.20
33815;DHT22;20121;51.910;8.406;2023-07-02T18:47:31;19.60;99.90
33815;DHT22;20121;51.910;8.406;2023-07-02T18:57:15;19.60;93.60
33815;DHT22;20121;51.910;8.406;2023-07-02T18:59:47;19.50;89.80
33815;DHT22;20121;51.910;8.406;2023-07-02T19:04:39;19.00;95.30
33815;DHT22;20121;51.910;8.406;2023-07-02T19:07:05;19.20;95.60
33815;DHT22;20121;51.910;8.406;2023-07-02T19:09:34;19.40;90.20
33815;DHT22;20121;51.910;8.406;2023-07-02T19:12:01;19.30;95.70
33815;DHT22;20121;51.910;8.406;2023-07-02T19:17:04;18.90;93.40
33815;DHT22;20121;51.910;8.406;2023-07-02T19:19:31;19.50;98.80
33815;DHT22;20121;51.910;8.406;2023-07-02T19:21:57;19.50;99.90
33815;DHT22;20121;51.910;8.406;2023-07-02T19:24:22;19.20;96.20
33815;DHT22;20121;51.910;8.406;2023-07-02T19:26:49;19.70;91.40
33815;DHT22;20121;51.910;8.406;2023-07-02T19:29:17;18.70;99.50
33815;DHT22;20121;51.910;8.406;2023-07-02T19:31:42;19.70;94.40
33815;DHT22;20121;51.910;8.406;2023-07-02T19:34:17;19.00;91.10
33815;DHT22;20121;51.910;8.406;2023-07-02T19:36:46;19.40;96.80
33815;DHT22;20121;51.910;8.406;2023-07-02T19:39:18;19.00;90.80
33815;DHT22;20121;51.910;8.406;2023-07-02T19:41:45;19.30;96.40
33815;DHT22;20121;51.910;8.406;2023-07-02T19:44:15;18.90;96.60
33815;DHT22;20121;51.910;8.406;2023-07-02T19:46:42;18.50;95.80
33815;DHT22;20121;51.910;8.406;2023-07-02T19:49:09;19.00;95.90
33815;DHT22;20121;51.910;8.406;2023-07-02T19:51:35;18.70;90.30
33815;DHT22;20121;51.910;8.406;2023-07-02T19:54:01;18.70;99.90
33815;DHT22;20121;51.910;8.406;2023-07-02T19:56:29;19.00;97.90
33815;DHT22;20121;51.910;8.406;2023-07-02T19:58:54;18.40;95.60
33815;DHT22;20121;51.910;8.406;2023-07-02T20:03:47;18.20;95.70
33815;DHT22;20121;51.910;8.406;2023-07-02T20:06:13;18.30;95.80
33815;DHT22;20121;51.910;8.406;2023-07-02T20:08:39;18.30;97.50
33815;DHT22;20121;51.910;8.406;2023-07-02T20:11:05;18.10;96.60
33815;DHT22;20121;51.910;8.406;2023-07-02T20:15:57;17.90;97.70
33815;DHT22;20121;51.910;8.406;2023-07-02T20:18:25;18.30;90.70
33815;DHT22;20121;51.910;8.406;2023-07-02T20:20:51;18.50;96.30
33815;DHT22;20121;51.910;8.406;2023-07-02T20:23:22;18.40;99.10
33815;DHT22;20121;51.910;8.406;2023-07-02T20:25:48;17.80;97.30
33815;DHT22;20121;51.910;8.406;2023-07-02T20:28:13;17.90;99.90
33815;DHT22;20121;51.910;8.406;2023-07-02T20:40:25;17.80;92.50
33815;DHT22;20121;51.910;8.406;2023-07-02T20:42:50;18.10;96.60
33815;DHT22;20121;51.910;8.406;2023-07-02T20:47:46;18.20;93.70
33815;DHT22;20121;51.910;8.406;2023-07-02T20:50:14;18.10;91.60
33815;DHT22;20121;51.910;8.406;2023-07-02T20:57:33;18.40;96.90
33815;DHT22;20121;51.910;8.406;2023-07-02T20:59:59;17.70;95.70
33815;DHT22;20121;51.910;8.406;2023-07-02T21:02:25;17.90;96.80
33815;DHT22;20121;51.910;8.406;2023-07-02T21:04:51;17.80;96.40
33815;DHT22;20121;51.910;8.406;2023-07-02T21:07:22;18.00;91.10
33815;DHT22;20121;51.910;8.406;2023-07-02T21:09:48;18.00;96.60
33815;DHT22;20121;51.910;8.406;2023-07-02T21:12:14;18.30;99.00
33815;DHT22;20121;51.910;8.406;2023-07-02T21:14:40;18.30;99.90
33815;DHT22;20121;51.910;8.406;2023-07-02T21:17:05;17.70;96.60
33815;DHT22;20121;51.910;8.406;2023-07-02T21:19:38;17.80;99.90
33815;DHT22;20121;51.910;8.406;2023-07-02T21:22:04;18.20;97.20
33815;DHT22;20121;51.910;8.406;2023-07-02T21:24:30;17.70;95.30
33815;DHT22;20121;51.910;8.406;2023-07-02T21:26:56;18.00;99.90
33815;DHT22;20121;51.910;8.406;2023-07-02T21:29:22;17.30;99.90
33815;DHT22;20121;51.910;8.406;2023-07-02T21:31:50;17.70;91.90
33815;DHT22;20121;51.910;8.406;2023-07-02T21:34:16;17.70;94.70
33815;DHT22;20121;51.910;8.406;2023-07-02T21:39:07;18.10;98.70
33815;DHT22;20121;51.910;8.406;2023-07-02T21:41:33;18.00;99.90
33815;DHT22;20121;51.910;8.406;2023-07-02T21:51:20;17.20;97.30
33815;DHT22;20121;51.910;8.406;2023-07-02T21:53:48;17.50;99.90
33815;DHT22;20121;51.910;8.406;2023-07-02T21:56:15;17.80;99.90
33815;DHT22;20121;51.910;8.406;2023-07-02T21:58:41;17.90;98.40
33815;DHT22;20121;51.910;8.406;2023-07-02T22:01:07;17.10;97.00
33815;DHT22;20121;51.910;8.406;2023-07-02T22:10:51;17.50;93.30
33815;DHT22;20121;51.910;8.406;2023-07-02T22:13:18;17.40;93.20
33815;DHT22;20121;51.910;8.406;2023-07-02T22:15:44;17.10;98.70
33815;DHT22;20121;51.910;8.406;2023-07-02T22:18:10;17.20;99.90
33815;DHT22;20121;51.910;8.406;2023-07-02T22:20:37;17.60;99.90
33815;DHT22;20121;51.910;8.406;2023-07-02T22:23:03;17.40;99.20
33815;DHT22;20121;51.910;8.406;2023-07-02T22:25:30;17.50;95.60
33815;DHT22;20121;51.910;8.406;2023-07-02T22:27:56;17.40;99.90
33815;DHT22;20121;51.910;8.406;2023-07-02T22:30:22;17.70;99.80
33815;DHT22;20121;51.910;8.406;2023-07-02T22:32:48;17.00;97.80
33815;DHT22;20121;51.910;8.406;2023-07-02T22:37:40;17.70;99.90
33815;DHT22;20121;51.910;8.406;2023-07-02T22:40:08;17.00;99.50
33815;DHT22;20121;51.910;8.406;2023-07-02T22:42:35;17.20;99.90
33815;DHT22;20121;51.910;8.406;2023-07-02T22:45:04;17.10;99.50
33815;DHT22;20121;51.910;8.406;2023-07-02T22:47:30;17.00;99.90
33815;DHT22;20121;51.910;8.406;2023-07-02T22:49:56;16.70;99.90
33815;DHT22;20121;51.910;8.406;2023-07-02T22:52:21;17.40;99.90
33815;DHT22;20121;51.910;8.406;2023-07-02T22:54:47;17.50;99.90
33815;DHT22;20121;51.910;8.406;2023-07-02T23:02:04;17.00;96.30
33815;DHT22;20121;51.910;8.406;2023-07-02T23:04:30;16.90;99.90
33815;DHT22;20121;51.910;8.406;2023-07-02T23:06:55;16.50;99.90
33815;DHT22;20121;51.910;8.406;2023-07-02T23:09:21;17.30;99.90
33815;DHT22;20121;51.910;8.406;2023-07-02T23:16:41;16.60;99.90
33815;DHT22;20121;51.910;8.406;2023-07-02T23:19:06;17.40;99.90
33815;DHT22;20121;51.910;8.406;2023-07-02T23:21:32;16.60;99.90
33815;DHT22;20121;51.910;8.406;2023-07-02T23:26:25;16.90;96.30
33815;DHT22;20121;51.910;8.406;2023-07-02T23:28:52;16.90;96.40
33815;DHT22;20121;51.910;8.406;2023-07-02T23:31:19;17.00;98.00
33815;DHT22;20121;51.910;8.406;2023-07-02T23:33:45;17.30;99.90
33815;DHT22;20121;51.910;8.406;2023-07-02T23:36:10;16.70;99.90
33815;DHT22;20121;51.910;8.406;2023-07-02T23:41:02;16.70;99.90
33815;DHT22;20121;51.910;8.406;2023-07-02T23:45:54;17.10;99.90
33815;DHT22;20121;51.910;8.406;2023-07-02T23:48:20;16.50;99.90
33815;DHT22;20121;51.910;8.406;2023-07-02T23:50:46;17.10;99.90
33815;DHT22;20121;51.910;8.406;2023-07-02T23:53:12;17.80;99.90
33815;DHT22;20121;51.910;8.406;2023-07-02T23:55:38;16.70;99.90
33815;DHT22;20121;51.910;8.406;2023-07-02T23:58:03;16.90;99.90
